sensor_id;sensor_type;location;lat;lon;timestamp;pressure;altitude;pressure_sealevel;temperature;humidity
22647;BME280;11490;42.726;23.268;2023-02-28T00:00:27;95675.16;;;8.09;100.00
22647;BME280;11490;42.726;23.268;2023-02-28T00:02:52;95673.78;;;8.00;100.00
22647;BME280;11490;42.726;23.268;2023-02-28T00:05:22;95681.44;;;8.22;100.00
22647;BME280;11490;42.726;23.268;2023-02-28T00:07:48;95671.06;;;8.13;100.00
22647;BME280;11490;42.726;23.268;2023-02-28T00:10:19;95685.63;;;8.04;100.00
22647;BME280;11490;42.726;23.268;2023-02-28T00:12:58;95697.16;;;7.59;100.00
22647;BME280;11490;42.726;23.268;2023-02-28T00:15:24;95699.97;;;7.84;100.00
22647;BME280;11490;42.726;23.268;2023-02-28T00:17:49;95699.34;;;7.88;100.00
22647;BME280;11490;42.726;23.268;2023-02-28T00:20:15;95700.50;;;8.05;100.00
22647;BME280;11490;42.726;23.268;2023-02-28T00:22:42;95692.72;;;8.17;100.00
22647;BME280;11490;42.726;23.268;2023-02-28T00:25:11;95703.31;;;8.24;100.00
22647;BME280;11490;42.726;23.268;2023-02-28T00:27:38;95716.19;;;8.27;100.00
22647;BME280;11490;42.726;23.268;2023-02-28T00:30:05;95704.78;;;8.13;100.00
22647;BME280;11490;42.726;23.268;2023-02-28T00:32:32;95703.59;;;8.02;100.00
22647;BME280;11490;42.726;23.268;2023-02-28T00:34:57;95709.31;;;7.99;100.00
22647;BME280;11490;42.726;23.268;2023-02-28T00:37:22;95715.88;;;7.97;100.00
22647;BME280;11490;42.726;23.268;2023-02-28T00:39:48;95713.56;;;8.13;100.00
22647;BME280;11490;42.726;23.268;2023-02-28T00:42:13;95706.25;;;8.02;100.00
22647;BME280;11490;42.726;23.268;2023-02-28T00:44:39;95714.41;;;8.07;100.00
22647;BME280;11490;42.726;23.268;2023-02-28T00:47:04;95700.88;;;8.16;100.00
22647;BME280;11490;42.726;23.268;2023-02-28T00:49:29;95702.53;;;8.17;100.00
22647;BME280;11490;42.726;23.268;2023-02-28T00:51:55;95709.88;;;8.15;100.00
22647;BME280;11490;42.726;23.268;2023-02-28T00:54:21;95699.31;;;8.01;100.00
22647;BME280;11490;42.726;23.268;2023-02-28T00:56:47;95704.22;;;8.04;100.00
22647;BME280;11490;42.726;23.268;2023-02-28T00:59:14;95687.06;;;8.00;100.00
22647;BME280;11490;42.726;23.268;2023-02-28T01:01:40;95699.72;;;7.98;100.00
22647;BME280;11490;42.726;23.268;2023-02-28T01:04:06;95705.94;;;7.66;100.00
22647;BME280;11490;42.726;23.268;2023-02-28T01:06:31;95686.72;;;7.77;100.00
22647;BME280;11490;42.726;23.268;2023-02-28T01:08:57;95692.81;;;7.84;100.00
22647;BME280;11490;42.726;23.268;2023-02-28T01:11:23;95696.97;;;7.54;100.00
22647;BME280;11490;42.726;23.268;2023-02-28T01:13:49;95685.50;;;7.60;100.00
22647;BME280;11490;42.726;23.268;2023-02-28T01:16:14;95702.69;;;7.64;100.00
22647;BME280;11490;42.726;23.268;2023-02-28T01:18:40;95693.69;;;7.52;100.00
22647;BME280;11490;42.726;23.268;2023-02-28T01:21:07;95707.19;;;7.44;100.00
22647;BME280;11490;42.726;23.268;2023-02-28T01:23:33;95693.72;;;7.39;100.00
22647;BME280;11490;42.726;23.268;2023-02-28T01:26:13;95679.84;;;7.43;100.00
22647;BME280;11490;42.726;23.268;2023-02-28T01:28:40;95702.69;;;7.38;100.00
22647;BME280;11490;42.726;23.268;2023-02-28T01:31:06;95686.38;;;7.14;100.00
22647;BME280;11490;42.726;23.268;2023-02-28T01:33:32;95695.78;;;7.23;100.00
22647;BME280;11490;42.726;23.268;2023-02-28T01:36:02;95695.53;;;7.51;100.00
22647;BME280;11490;42.726;23.268;2023-02-28T01:38:29;95691.25;;;7.57;100.00
22647;BME280;11490;42.726;23.268;2023-02-28T01:40:54;95680.84;;;7.35;100.00
22647;BME280;11490;42.726;23.268;2023-02-28T01:43:28;95680.66;;;7.50;100.00
22647;BME280;11490;42.726;23.268;2023-02-28T01:45:55;95696.34;;;7.65;100.00
22647;BME280;11490;42.726;23.268;2023-02-28T01:48:25;95686.78;;;7.38;100.00
22647;BME280;11490;42.726;23.268;2023-02-28T01:50:51;95700.28;;;7.43;100.00
22647;BME280;11490;42.726;23.268;2023-02-28T01:53:21;95696.94;;;7.67;100.00
22647;BME280;11490;42.726;23.268;2023-02-28T01:55:51;95678.56;;;7.59;100.00
22647;BME280;11490;42.726;23.268;2023-02-28T01:58:17;95692.84;;;7.71;100.00
22647;BME280;11490;42.726;23.268;2023-02-28T02:00:43;95692.47;;;7.54;100.00
22647;BME280;11490;42.726;23.268;2023-02-28T02:03:12;95688.25;;;7.27;100.00
22647;BME280;11490;42.726;23.268;2023-02-28T02:05:39;95700.69;;;7.20;100.00
22647;BME280;11490;42.726;23.268;2023-02-28T02:08:08;95698.84;;;7.27;100.00
22647;BME280;11490;42.726;23.268;2023-02-28T02:10:35;95696.59;;;7.30;100.00
22647;BME280;11490;42.726;23.268;2023-02-28T02:16:20;95690.47;;;7.23;100.00
22647;BME280;11490;42.726;23.268;2023-02-28T02:24:27;95698.22;;;7.18;100.00
22647;BME280;11490;42.726;23.268;2023-02-28T02:27:17;95697.41;;;6.98;100.00
22647;BME280;11490;42.726;23.268;2023-02-28T02:32:25;95686.81;;;7.18;100.00
22647;BME280;11490;42.726;23.268;2023-02-28T02:35:14;95677.81;;;6.99;100.00
22647;BME280;11490;42.726;23.268;2023-02-28T02:41:17;95698.22;;;6.79;100.00
22647;BME280;11490;42.726;23.268;2023-02-28T02:43:46;95701.44;;;6.68;100.00
22647;BME280;11490;42.726;23.268;2023-02-28T02:46:27;95710.00;;;6.56;100.00
22647;BME280;11490;42.726;23.268;2023-02-28T02:48:54;95703.91;;;6.76;100.00
22647;BME280;11490;42.726;23.268;2023-02-28T02:51:23;95698.78;;;6.74;100.00
22647;BME280;11490;42.726;23.268;2023-02-28T02:54:00;95698.22;;;6.92;100.00
22647;BME280;11490;42.726;23.268;2023-02-28T02:56:29;95701.69;;;6.86;100.00
22647;BME280;11490;42.726;23.268;2023-02-28T02:58:59;95703.50;;;6.92;100.00
22647;BME280;11490;42.726;23.268;2023-02-28T03:01:28;95689.25;;;7.00;100.00
22647;BME280;11490;42.726;23.268;2023-02-28T03:04:01;95700.28;;;7.16;100.00
22647;BME280;11490;42.726;23.268;2023-02-28T03:06:28;95701.09;;;7.04;100.00
22647;BME280;11490;42.726;23.268;2023-02-28T03:08:53;95685.19;;;7.04;100.00
22647;BME280;11490;42.726;23.268;2023-02-28T03:11:19;95719.63;;;6.84;100.00
22647;BME280;11490;42.726;23.268;2023-02-28T03:16:36;95718.22;;;7.14;100.00
22647;BME280;11490;42.726;23.268;2023-02-28T03:23:07;95719.44;;;7.05;100.00
22647;BME280;11490;42.726;23.268;2023-02-28T03:30:57;95732.41;;;6.61;100.00
22647;BME280;11490;42.726;23.268;2023-02-28T03:33:30;95734.13;;;6.94;100.00
22647;BME280;11490;42.726;23.268;2023-02-28T03:36:10;95748.63;;;7.25;100.00
22647;BME280;11490;42.726;23.268;2023-02-28T03:38:49;95732.72;;;7.31;100.00
22647;BME280;11490;42.726;23.268;2023-02-28T03:42:04;95753.34;;;7.43;100.00
22647;BME280;11490;42.726;23.268;2023-02-28T03:44:27;95751.69;;;7.28;100.00
22647;BME280;11490;42.726;23.268;2023-02-28T03:47:25;95751.91;;;7.33;100.00
22647;BME280;11490;42.726;23.268;2023-02-28T03:53:19;95764.75;;;7.23;100.00
22647;BME280;11490;42.726;23.268;2023-02-28T03:55:55;95762.50;;;7.53;100.00
22647;BME280;11490;42.726;23.268;2023-02-28T04:01:15;95766.78;;;7.21;100.00
22647;BME280;11490;42.726;23.268;2023-02-28T04:03:43;95757.41;;;7.39;100.00
22647;BME280;11490;42.726;23.268;2023-02-28T04:06:17;95757.81;;;7.35;100.00
22647;BME280;11490;42.726;23.268;2023-02-28T04:08:43;95755.56;;;7.39;100.00
22647;BME280;11490;42.726;23.268;2023-02-28T04:11:17;95759.84;;;7.53;100.00
22647;BME280;11490;42.726;23.268;2023-02-28T04:13:44;95755.34;;;7.60;100.00
22647;BME280;11490;42.726;23.268;2023-02-28T04:16:10;95761.88;;;7.51;100.00
22647;BME280;11490;42.726;23.268;2023-02-28T04:18:41;95762.72;;;7.71;100.00
22647;BME280;11490;42.726;23.268;2023-02-28T04:21:08;95742.28;;;7.72;100.00
22647;BME280;11490;42.726;23.268;2023-02-28T04:23:34;95753.69;;;7.86;100.00
22647;BME280;11490;42.726;23.268;2023-02-28T04:26:00;95760.03;;;7.78;100.00
22647;BME280;11490;42.726;23.268;2023-02-28T04:28:25;95758.81;;;7.87;100.00
22647;BME280;11490;42.726;23.268;2023-02-28T04:30:58;95754.09;;;7.89;100.00
22647;BME280;11490;42.726;23.268;2023-02-28T04:33:24;95758.00;;;7.87;100.00
22647;BME280;11490;42.726;23.268;2023-02-28T04:36:03;95766.34;;;7.90;100.00
22647;BME280;11490;42.726;23.268;2023-02-28T04:38:30;95761.84;;;7.91;100.00
22647;BME280;11490;42.726;23.268;2023-02-28T04:40:59;95770.03;;;7.89;100.00
22647;BME280;11490;42.726;23.268;2023-02-28T04:43:26;95767.81;;;7.47;100.00
22647;BME280;11490;42.726;23.268;2023-02-28T04:45:52;95761.09;;;7.51;100.00
22647;BME280;11490;42.726;23.268;2023-02-28T04:48:17;95758.00;;;7.67;100.00
22647;BME280;11490;42.726;23.268;2023-02-28T04:50:42;95770.88;;;7.57;100.00
22647;BME280;11490;42.726;23.268;2023-02-28T04:53:08;95776.81;;;7.46;100.00
22647;BME280;11490;42.726;23.268;2023-02-28T04:55:34;95761.50;;;7.48;100.00
22647;BME280;11490;42.726;23.268;2023-02-28T04:57:59;95777.81;;;7.18;100.00
22647;BME280;11490;42.726;23.268;2023-02-28T05:00:24;95779.41;;;7.06;100.00
22647;BME280;11490;42.726;23.268;2023-02-28T05:02:50;95777.38;;;7.21;100.00
22647;BME280;11490;42.726;23.268;2023-02-28T05:05:15;95784.75;;;7.19;100.00
22647;BME280;11490;42.726;23.268;2023-02-28T05:07:44;95793.31;;;7.21;100.00
22647;BME280;11490;42.726;23.268;2023-02-28T05:10:10;95774.78;;;7.34;100.00
22647;BME280;11490;42.726;23.268;2023-02-28T05:12:36;95781.72;;;7.42;100.00
22647;BME280;11490;42.726;23.268;2023-02-28T05:15:02;95775.78;;;7.47;100.00
22647;BME280;11490;42.726;23.268;2023-02-28T05:17:28;95783.53;;;7.55;100.00
22647;BME280;11490;42.726;23.268;2023-02-28T05:19:53;95776.59;;;7.73;100.00
22647;BME280;11490;42.726;23.268;2023-02-28T05:22:18;95780.66;;;7.76;100.00
22647;BME280;11490;42.726;23.268;2023-02-28T05:24:44;95799.84;;;7.91;100.00
22647;BME280;11490;42.726;23.268;2023-02-28T05:27:10;95805.56;;;7.75;100.00
22647;BME280;11490;42.726;23.268;2023-02-28T05:29:35;95800.69;;;7.85;100.00
22647;BME280;11490;42.726;23.268;2023-02-28T05:32:10;95801.91;;;7.76;100.00
22647;BME280;11490;42.726;23.268;2023-02-28T05:34:37;95803.53;;;7.84;100.00
22647;BME280;11490;42.726;23.268;2023-02-28T05:37:02;95817.84;;;7.89;100.00
22647;BME280;11490;42.726;23.268;2023-02-28T05:39:28;95814.56;;;7.87;100.00
22647;BME280;11490;42.726;23.268;2023-02-28T05:41:53;95821.31;;;7.96;100.00
22647;BME280;11490;42.726;23.268;2023-02-28T05:44:18;95809.88;;;7.89;100.00
22647;BME280;11490;42.726;23.268;2023-02-28T05:46:44;95822.53;;;7.87;100.00
22647;BME280;11490;42.726;23.268;2023-02-28T05:49:09;95810.09;;;7.88;100.00
22647;BME280;11490;42.726;23.268;2023-02-28T05:51:35;95823.16;;;7.76;100.00
22647;BME280;11490;42.726;23.268;2023-02-28T05:54:01;95815.78;;;7.91;100.00
22647;BME280;11490;42.726;23.268;2023-02-28T05:56:27;95828.03;;;7.92;100.00
22647;BME280;11490;42.726;23.268;2023-02-28T05:58:53;95815.38;;;7.94;100.00
22647;BME280;11490;42.726;23.268;2023-02-28T06:01:21;95824.59;;;7.72;100.00
22647;BME280;11490;42.726;23.268;2023-02-28T06:03:48;95834.59;;;7.96;100.00
22647;BME280;11490;42.726;23.268;2023-02-28T06:06:14;95838.69;;;7.79;100.00
22647;BME280;11490;42.726;23.268;2023-02-28T06:08:40;95824.38;;;7.80;100.00
22647;BME280;11490;42.726;23.268;2023-02-28T06:11:05;95819.47;;;7.90;100.00
22647;BME280;11490;42.726;23.268;2023-02-28T06:13:31;95827.84;;;7.94;100.00
22647;BME280;11490;42.726;23.268;2023-02-28T06:16:00;95823.53;;;8.06;100.00
22647;BME280;11490;42.726;23.268;2023-02-28T06:18:26;95820.88;;;8.13;100.00
22647;BME280;11490;42.726;23.268;2023-02-28T06:20:54;95824.97;;;8.08;100.00
22647;BME280;11490;42.726;23.268;2023-02-28T06:23:20;95831.72;;;8.04;100.00
22647;BME280;11490;42.726;23.268;2023-02-28T06:25:47;95831.06;;;8.22;100.00
22647;BME280;11490;42.726;23.268;2023-02-28T06:28:12;95829.66;;;8.06;100.00
22647;BME280;11490;42.726;23.268;2023-02-28T06:30:38;95837.81;;;8.25;100.00
22647;BME280;11490;42.726;23.268;2023-02-28T06:33:04;95828.84;;;8.13;100.00
22647;BME280;11490;42.726;23.268;2023-02-28T06:35:29;95841.47;;;8.37;100.00
22647;BME280;11490;42.726;23.268;2023-02-28T06:37:55;95833.31;;;8.38;100.00
22647;BME280;11490;42.726;23.268;2023-02-28T06:40:20;95842.50;;;8.49;100.00
22647;BME280;11490;42.726;23.268;2023-02-28T06:42:46;95843.53;;;8.22;100.00
22647;BME280;11490;42.726;23.268;2023-02-28T06:45:12;95853.75;;;8.38;100.00
22647;BME280;11490;42.726;23.268;2023-02-28T06:47:38;95853.34;;;8.41;100.00
22647;BME280;11490;42.726;23.268;2023-02-28T06:50:05;95853.75;;;8.38;100.00
22647;BME280;11490;42.726;23.268;2023-02-28T06:52:30;95851.28;;;8.49;100.00
22647;BME280;11490;42.726;23.268;2023-02-28T06:54:56;95844.94;;;8.51;100.00
22647;BME280;11490;42.726;23.268;2023-02-28T06:57:31;95851.91;;;8.45;100.00
22647;BME280;11490;42.726;23.268;2023-02-28T07:00:02;95861.28;;;8.54;100.00
22647;BME280;11490;42.726;23.268;2023-02-28T07:02:29;95858.66;;;8.41;100.00
22647;BME280;11490;42.726;23.268;2023-02-28T07:04:55;95859.91;;;8.12;100.00
22647;BME280;11490;42.726;23.268;2023-02-28T07:07:20;95857.88;;;8.34;100.00
22647;BME280;11490;42.726;23.268;2023-02-28T07:09:45;95829.66;;;8.20;100.00
22647;BME280;11490;42.726;23.268;2023-02-28T07:12:11;95858.22;;;8.44;100.00
22647;BME280;11490;42.726;23.268;2023-02-28T07:14:36;95857.22;;;8.52;100.00
22647;BME280;11490;42.726;23.268;2023-02-28T07:17:02;95853.13;;;8.49;100.00
22647;BME280;11490;42.726;23.268;2023-02-28T07:19:28;95848.47;;;8.31;100.00
22647;BME280;11490;42.726;23.268;2023-02-28T07:21:54;95855.16;;;8.47;100.00
22647;BME280;11490;42.726;23.268;2023-02-28T07:24:20;95848.84;;;8.48;100.00
22647;BME280;11490;42.726;23.268;2023-02-28T07:26:45;95851.72;;;8.40;100.00
22647;BME280;11490;42.726;23.268;2023-02-28T07:29:11;95850.25;;;8.57;100.00
22647;BME280;11490;42.726;23.268;2023-02-28T07:31:36;95840.25;;;8.46;100.00
22647;BME280;11490;42.726;23.268;2023-02-28T07:34:02;95850.84;;;8.53;100.00
22647;BME280;11490;42.726;23.268;2023-02-28T07:36:28;95848.00;;;8.54;100.00
22647;BME280;11490;42.726;23.268;2023-02-28T07:38:53;95838.19;;;8.48;100.00
22647;BME280;11490;42.726;23.268;2023-02-28T07:41:21;95849.44;;;8.50;100.00
22647;BME280;11490;42.726;23.268;2023-02-28T07:43:47;95841.47;;;8.50;100.00
22647;BME280;11490;42.726;23.268;2023-02-28T07:46:15;95860.06;;;8.57;100.00
22647;BME280;11490;42.726;23.268;2023-02-28T07:48:41;95841.69;;;8.48;100.00
22647;BME280;11490;42.726;23.268;2023-02-28T07:51:06;95835.72;;;8.53;100.00
22647;BME280;11490;42.726;23.268;2023-02-28T07:53:32;95853.69;;;8.64;100.00
22647;BME280;11490;42.726;23.268;2023-02-28T07:55:58;95829.31;;;8.67;100.00
22647;BME280;11490;42.726;23.268;2023-02-28T07:58:25;95836.41;;;8.86;100.00
22647;BME280;11490;42.726;23.268;2023-02-28T08:00:51;95826.59;;;8.87;100.00
22647;BME280;11490;42.726;23.268;2023-02-28T08:03:18;95847.22;;;8.92;100.00
22647;BME280;11490;42.726;23.268;2023-02-28T08:05:44;95828.78;;;8.59;100.00
22647;BME280;11490;42.726;23.268;2023-02-28T08:08:09;95842.41;;;8.69;100.00
22647;BME280;11490;42.726;23.268;2023-02-28T08:10:35;95847.13;;;8.73;100.00
22647;BME280;11490;42.726;23.268;2023-02-28T08:13:01;95819.38;;;8.56;100.00
22647;BME280;11490;42.726;23.268;2023-02-28T08:15:26;95842.59;;;8.80;100.00
22647;BME280;11490;42.726;23.268;2023-02-28T08:17:52;95831.94;;;8.80;100.00
22647;BME280;11490;42.726;23.268;2023-02-28T08:20:17;95846.94;;;9.13;100.00
22647;BME280;11490;42.726;23.268;2023-02-28T08:22:42;95838.59;;;9.03;100.00
22647;BME280;11490;42.726;23.268;2023-02-28T08:25:08;95833.09;;;8.98;100.00
22647;BME280;11490;42.726;23.268;2023-02-28T08:27:34;95843.75;;;8.98;100.00
22647;BME280;11490;42.726;23.268;2023-02-28T08:30:00;95839.63;;;9.02;100.00
22647;BME280;11490;42.726;23.268;2023-02-28T08:32:25;95867.75;;;9.29;100.00
22647;BME280;11490;42.726;23.268;2023-02-28T08:34:51;95843.75;;;8.91;100.00
22647;BME280;11490;42.726;23.268;2023-02-28T08:37:16;95844.41;;;8.86;100.00
22647;BME280;11490;42.726;23.268;2023-02-28T08:39:42;95836.50;;;8.73;100.00
22647;BME280;11490;42.726;23.268;2023-02-28T08:42:07;95851.16;;;8.89;100.00
22647;BME280;11490;42.726;23.268;2023-02-28T08:44:32;95843.13;;;8.96;100.00
22647;BME280;11490;42.726;23.268;2023-02-28T08:46:58;95844.47;;;8.73;100.00
22647;BME280;11490;42.726;23.268;2023-02-28T08:49:23;95830.72;;;8.76;100.00
22647;BME280;11490;42.726;23.268;2023-02-28T08:51:48;95851.91;;;9.03;100.00
22647;BME280;11490;42.726;23.268;2023-02-28T08:54:14;95845.19;;;8.94;100.00
22647;BME280;11490;42.726;23.268;2023-02-28T08:56:45;95866.53;;;9.25;100.00
22647;BME280;11490;42.726;23.268;2023-02-28T08:59:11;95853.22;;;9.25;100.00
22647;BME280;11490;42.726;23.268;2023-02-28T09:01:36;95847.28;;;9.23;100.00
22647;BME280;11490;42.726;23.268;2023-02-28T09:04:02;95863.00;;;9.31;100.00
22647;BME280;11490;42.726;23.268;2023-02-28T09:06:28;95861.84;;;9.58;100.00
22647;BME280;11490;42.726;23.268;2023-02-28T09:08:57;95858.03;;;9.73;100.00
22647;BME280;11490;42.726;23.268;2023-02-28T09:11:24;95837.59;;;9.67;100.00
22647;BME280;11490;42.726;23.268;2023-02-28T09:13:49;95844.50;;;9.74;100.00
22647;BME280;11490;42.726;23.268;2023-02-28T09:16:16;95861.31;;;9.75;100.00
22647;BME280;11490;42.726;23.268;2023-02-28T09:18:41;95848.56;;;9.77;100.00
22647;BME280;11490;42.726;23.268;2023-02-28T09:21:13;95852.25;;;9.76;100.00
22647;BME280;11490;42.726;23.268;2023-02-28T09:23:42;95849.19;;;9.79;100.00
22647;BME280;11490;42.726;23.268;2023-02-28T09:26:14;95854.00;;;9.63;100.00
22647;BME280;11490;42.726;23.268;2023-02-28T09:28:39;95857.28;;;9.65;100.00
22647;BME280;11490;42.726;23.268;2023-02-28T09:31:05;95844.97;;;9.64;100.00
22647;BME280;11490;42.726;23.268;2023-02-28T09:33:30;95831.41;;;9.73;100.00
22647;BME280;11490;42.726;23.268;2023-02-28T09:36:01;95843.34;;;9.63;100.00
22647;BME280;11490;42.726;23.268;2023-02-28T09:38:28;95835.19;;;9.58;100.00
22647;BME280;11490;42.726;23.268;2023-02-28T09:41:00;95852.44;;;10.06;100.00
22647;BME280;11490;42.726;23.268;2023-02-28T09:43:29;95820.84;;;10.09;100.00
22647;BME280;11490;42.726;23.268;2023-02-28T09:45:59;95827.94;;;10.15;100.00
22647;BME280;11490;42.726;23.268;2023-02-28T09:48:39;95823.63;;;10.21;100.00
22647;BME280;11490;42.726;23.268;2023-02-28T09:51:38;95843.59;;;10.36;100.00
22647;BME280;11490;42.726;23.268;2023-02-28T09:54:08;95844.63;;;10.35;100.00
22647;BME280;11490;42.726;23.268;2023-02-28T09:56:40;95836.41;;;10.55;100.00
22647;BME280;11490;42.726;23.268;2023-02-28T09:59:29;95808.47;;;10.58;100.00
22647;BME280;11490;42.726;23.268;2023-02-28T10:02:21;95834.03;;;10.84;100.00
22647;BME280;11490;42.726;23.268;2023-02-28T10:10:30;95817.25;;;10.76;100.00
22647;BME280;11490;42.726;23.268;2023-02-28T10:13:01;95790.53;;;10.47;100.00
22647;BME280;11490;42.726;23.268;2023-02-28T10:15:31;95797.28;;;10.49;100.00
22647;BME280;11490;42.726;23.268;2023-02-28T10:18:00;95782.63;;;10.15;100.00
22647;BME280;11490;42.726;23.268;2023-02-28T10:20:33;95802.84;;;10.48;100.00
22647;BME280;11490;42.726;23.268;2023-02-28T10:23:41;95808.00;;;10.97;100.00
22647;BME280;11490;42.726;23.268;2023-02-28T10:26:13;95800.03;;;11.09;100.00
22647;BME280;11490;42.726;23.268;2023-02-28T10:28:41;95783.91;;;11.15;100.00
22647;BME280;11490;42.726;23.268;2023-02-28T10:31:11;95782.22;;;10.91;100.00
22647;BME280;11490;42.726;23.268;2023-02-28T10:33:40;95775.69;;;10.87;100.00
22647;BME280;11490;42.726;23.268;2023-02-28T10:36:05;95772.69;;;10.95;100.00
22647;BME280;11490;42.726;23.268;2023-02-28T10:38:37;95780.09;;;10.93;99.82
22647;BME280;11490;42.726;23.268;2023-02-28T10:43:30;95764.06;;;11.11;98.70
22647;BME280;11490;42.726;23.268;2023-02-28T10:46:01;95770.06;;;11.37;98.33
22647;BME280;11490;42.726;23.268;2023-02-28T10:48:30;95747.28;;;11.46;97.71
22647;BME280;11490;42.726;23.268;2023-02-28T10:51:00;95736.88;;;11.44;97.64
22647;BME280;11490;42.726;23.268;2023-02-28T10:58:59;95748.19;;;12.05;94.79
22647;BME280;11490;42.726;23.268;2023-02-28T11:04:03;95742.63;;;11.94;94.42
22647;BME280;11490;42.726;23.268;2023-02-28T11:06:33;95740.19;;;11.81;94.08
22647;BME280;11490;42.726;23.268;2023-02-28T11:09:02;95726.22;;;11.79;94.77
22647;BME280;11490;42.726;23.268;2023-02-28T11:11:30;95737.06;;;11.84;95.54
22647;BME280;11490;42.726;23.268;2023-02-28T11:14:06;95722.97;;;11.77;96.50
22647;BME280;11490;42.726;23.268;2023-02-28T11:16:41;95724.69;;;11.72;94.96
22647;BME280;11490;42.726;23.268;2023-02-28T11:19:17;95731.56;;;11.79;93.85
22647;BME280;11490;42.726;23.268;2023-02-28T11:21:52;95732.72;;;11.60;92.90
22647;BME280;11490;42.726;23.268;2023-02-28T11:24:27;95704.34;;;11.59;93.48
22647;BME280;11490;42.726;23.268;2023-02-28T11:26:54;95716.44;;;11.73;93.97
22647;BME280;11490;42.726;23.268;2023-02-28T11:29:29;95735.28;;;11.78;92.84
22647;BME280;11490;42.726;23.268;2023-02-28T11:32:33;95727.75;;;11.99;91.86
22647;BME280;11490;42.726;23.268;2023-02-28T11:37:34;95715.06;;;12.06;93.99
22647;BME280;11490;42.726;23.268;2023-02-28T11:39:59;95723.50;;;11.56;92.04
22647;BME280;11490;42.726;23.268;2023-02-28T11:48:22;95718.88;;;12.21;90.30
22647;BME280;11490;42.726;23.268;2023-02-28T11:51:00;95705.78;;;11.97;90.37
22647;BME280;11490;42.726;23.268;2023-02-28T11:56:39;95713.53;;;12.10;90.61
22647;BME280;11490;42.726;23.268;2023-02-28T12:07:47;95713.44;;;12.05;89.47
22647;BME280;11490;42.726;23.268;2023-02-28T12:10:24;95704.38;;;12.06;90.13
22647;BME280;11490;42.726;23.268;2023-02-28T12:15:48;95710.00;;;12.32;89.11
22647;BME280;11490;42.726;23.268;2023-02-28T12:21:10;95701.47;;;12.47;88.21
22647;BME280;11490;42.726;23.268;2023-02-28T12:26:22;95697.09;;;12.41;86.88
22647;BME280;11490;42.726;23.268;2023-02-28T12:28:57;95676.38;;;11.97;86.75
22647;BME280;11490;42.726;23.268;2023-02-28T12:31:27;95702.28;;;12.08;88.23
22647;BME280;11490;42.726;23.268;2023-02-28T12:34:00;95665.09;;;11.94;88.83
22647;BME280;11490;42.726;23.268;2023-02-28T12:36:28;95684.69;;;12.23;88.15
22647;BME280;11490;42.726;23.268;2023-02-28T12:38:59;95679.59;;;12.10;87.90
22647;BME280;11490;42.726;23.268;2023-02-28T12:41:27;95688.53;;;12.27;88.21
22647;BME280;11490;42.726;23.268;2023-02-28T12:44:02;95689.84;;;12.13;88.20
22647;BME280;11490;42.726;23.268;2023-02-28T12:46:43;95684.38;;;11.97;88.57
22647;BME280;11490;42.726;23.268;2023-02-28T12:49:15;95688.34;;;12.06;89.51
22647;BME280;11490;42.726;23.268;2023-02-28T12:51:43;95687.50;;;11.70;89.03
22647;BME280;11490;42.726;23.268;2023-02-28T12:57:22;95690.19;;;11.93;88.54
22647;BME280;11490;42.726;23.268;2023-02-28T13:00:01;95675.78;;;11.71;88.97
22647;BME280;11490;42.726;23.268;2023-02-28T13:05:32;95683.81;;;11.94;89.41
22647;BME280;11490;42.726;23.268;2023-02-28T13:08:22;95682.66;;;11.79;89.90
22647;BME280;11490;42.726;23.268;2023-02-28T13:10:53;95684.16;;;11.86;89.01
22647;BME280;11490;42.726;23.268;2023-02-28T13:13:24;95679.41;;;11.88;89.43
22647;BME280;11490;42.726;23.268;2023-02-28T13:16:04;95691.59;;;12.08;88.82
22647;BME280;11490;42.726;23.268;2023-02-28T13:21:06;95672.88;;;11.96;88.55
22647;BME280;11490;42.726;23.268;2023-02-28T13:26:12;95682.81;;;12.24;87.53
22647;BME280;11490;42.726;23.268;2023-02-28T13:28:59;95672.97;;;12.01;87.07
22647;BME280;11490;42.726;23.268;2023-02-28T13:31:25;95667.75;;;11.94;88.18
22647;BME280;11490;42.726;23.268;2023-02-28T13:36:25;95668.34;;;11.97;87.70
22647;BME280;11490;42.726;23.268;2023-02-28T13:38:52;95670.91;;;12.03;87.60
22647;BME280;11490;42.726;23.268;2023-02-28T13:44:14;95663.72;;;11.80;87.58
22647;BME280;11490;42.726;23.268;2023-02-28T13:49:33;95651.41;;;11.79;88.11
22647;BME280;11490;42.726;23.268;2023-02-28T14:02:48;95657.78;;;11.67;88.22
22647;BME280;11490;42.726;23.268;2023-02-28T14:05:20;95643.16;;;11.81;88.68
22647;BME280;11490;42.726;23.268;2023-02-28T14:07:52;95656.47;;;11.69;88.03
22647;BME280;11490;42.726;23.268;2023-02-28T14:10:23;95632.09;;;11.54;88.92
22647;BME280;11490;42.726;23.268;2023-02-28T14:12:57;95645.91;;;11.63;89.45
22647;BME280;11490;42.726;23.268;2023-02-28T14:18:25;95654.50;;;11.65;88.59
22647;BME280;11490;42.726;23.268;2023-02-28T14:20:55;95648.25;;;11.47;88.68
22647;BME280;11490;42.726;23.268;2023-02-28T14:29:22;95637.22;;;11.21;90.46
22647;BME280;11490;42.726;23.268;2023-02-28T14:32:02;95656.38;;;11.41;90.43
22647;BME280;11490;42.726;23.268;2023-02-28T14:37:18;95647.06;;;11.20;91.19
22647;BME280;11490;42.726;23.268;2023-02-28T14:39:46;95648.34;;;11.17;90.91
22647;BME280;11490;42.726;23.268;2023-02-28T14:42:31;95645.00;;;11.22;91.34
22647;BME280;11490;42.726;23.268;2023-02-28T14:44:56;95649.84;;;11.25;91.05
22647;BME280;11490;42.726;23.268;2023-02-28T14:47:24;95668.56;;;11.37;91.16
22647;BME280;11490;42.726;23.268;2023-02-28T14:49:51;95663.44;;;11.12;91.65
22647;BME280;11490;42.726;23.268;2023-02-28T14:52:25;95656.69;;;11.09;92.16
22647;BME280;11490;42.726;23.268;2023-02-28T14:55:17;95670.88;;;11.22;92.29
22647;BME280;11490;42.726;23.268;2023-02-28T14:58:22;95674.81;;;11.19;93.18
22647;BME280;11490;42.726;23.268;2023-02-28T15:00:50;95667.38;;;11.09;92.92